Time;durP1;ratioP1;P1;durP2;ratioP2;P2;SDS_P1;SDS_P2;PMS_P1;PMS_P2;Temp;Humidity;BMP_temperature;BMP_pressure;BME280_temperature;BME280_humidity;BME280_pressure;Samples;Min_cycle;Max_cycle;Signal;HPM_P1;HPM_P2
2023/10/15 00:01:50;;;;;;;6.32;2.15;;;19.80;70.60;;;;;;6278148;22;20335;-76
2023/10/15 00:04:16;;;;;;;4.60;2.00;;;19.80;70.60;;;;;;6306210;22;20023;-76
2023/10/15 00:06:41;;;;;;;7.53;2.50;;;19.80;70.70;;;;;;6278315;22;20090;-76
2023/10/15 00:09:07;;;;;;;5.78;2.17;;;19.80;70.70;;;;;;6305954;22;20117;-76
2023/10/15 00:11:33;;;;;;;6.10;2.53;;;19.80;70.60;;;;;;6306817;22;20019;-76
2023/10/15 00:13:59;;;;;;;6.15;2.40;;;19.80;70.60;;;;;;6279528;22;20012;-76
2023/10/15 00:16:24;;;;;;;7.72;2.40;;;19.70;70.50;;;;;;6305813;22;20019;-76
2023/10/15 00:18:50;;;;;;;6.93;2.30;;;19.80;70.50;;;;;;6279589;22;20007;-76
2023/10/15 00:21:15;;;;;;;6.38;2.22;;;19.70;70.30;;;;;;6306844;22;20343;-76
2023/10/15 00:23:43;;;;;;;6.55;2.20;;;19.70;70.20;;;;;;6306133;22;20015;-76
2023/10/15 00:26:12;;;;;;;5.32;2.08;;;19.70;70.20;;;;;;6279041;22;20094;-75
2023/10/15 00:28:38;;;;;;;6.00;2.28;;;19.70;70.10;;;;;;6279225;22;20021;-75
2023/10/15 00:31:13;;;;;;;6.15;2.50;;;19.70;70.10;;;;;;6278746;22;20022;-75
2023/10/15 00:33:42;;;;;;;6.75;2.65;;;19.70;70.00;;;;;;6279374;22;20023;-76
2023/10/15 00:36:12;;;;;;;5.25;2.08;;;19.70;70.00;;;;;;6278949;22;20023;-76
2023/10/15 00:38:38;;;;;;;6.38;2.22;;;19.70;70.00;;;;;;6278698;22;20095;-76
2023/10/15 00:41:09;;;;;;;6.43;2.22;;;19.70;70.10;;;;;;6306819;22;20042;-76
2023/10/15 00:43:35;;;;;;;5.30;2.42;;;19.70;70.10;;;;;;6278924;22;20597;-76
2023/10/15 00:46:09;;;;;;;5.50;2.28;;;19.70;70.70;;;;;;6278375;22;20102;-76
2023/10/15 00:48:35;;;;;;;6.03;2.30;;;19.60;70.00;;;;;;6279427;22;20019;-77
2023/10/15 00:51:04;;;;;;;6.80;2.67;;;19.70;70.10;;;;;;6278525;22;20084;-77
2023/10/15 00:53:29;;;;;;;4.03;1.95;;;19.70;70.10;;;;;;6278823;22;20458;-77
2023/10/15 00:56:02;;;;;;;6.07;2.35;;;19.60;70.10;;;;;;6253390;22;20023;-77
2023/10/15 00:58:32;;;;;;;5.57;2.22;;;19.70;70.10;;;;;;6304850;22;20080;-76
2023/10/15 01:03:50;;;;;;;5.43;1.98;;;19.60;70.10;;;;;;6279262;22;20447;-76
2023/10/15 01:06:30;;;;;;;6.13;2.20;;;19.60;70.10;;;;;;6305116;22;20491;-77
2023/10/15 01:11:44;;;;;;;4.80;2.50;;;19.60;70.00;;;;;;6308997;22;20023;-76
2023/10/15 01:14:25;;;;;;;6.05;2.50;;;19.60;70.10;;;;;;6307627;22;20015;-76
2023/10/15 01:16:51;;;;;;;7.35;2.83;;;19.60;70.10;;;;;;6281024;22;20055;-77
2023/10/15 01:19:18;;;;;;;5.25;2.20;;;19.60;70.00;;;;;;6280147;22;20069;-76
2023/10/15 01:22:03;;;;;;;6.90;2.47;;;19.60;70.10;;;;;;6308898;22;20042;-76
2023/10/15 01:24:38;;;;;;;6.57;2.75;;;19.60;70.00;;;;;;6280579;22;20007;-76
2023/10/15 01:29:34;;;;;;;6.18;2.67;;;19.60;70.10;;;;;;6280453;22;20343;-76
2023/10/15 01:32:02;;;;;;;6.32;2.55;;;19.60;70.10;;;;;;6308352;22;20023;-76
2023/10/15 01:34:29;;;;;;;6.35;2.60;;;19.60;70.10;;;;;;6279596;22;20023;-76
2023/10/15 01:36:56;;;;;;;6.07;2.30;;;19.60;70.10;;;;;;6280832;22;20451;-76
2023/10/15 01:39:38;;;;;;;4.53;2.08;;;19.50;70.00;;;;;;6280755;22;20026;-76
2023/10/15 01:42:07;;;;;;;5.75;2.38;;;19.60;70.10;;;;;;6306886;22;20019;-76
2023/10/15 01:44:39;;;;;;;6.00;2.60;;;19.50;70.00;;;;;;6280611;22;20022;-76
2023/10/15 01:49:33;;;;;;;5.38;2.25;;;19.50;70.10;;;;;;6279517;22;20019;-76
2023/10/15 01:52:08;;;;;;;5.63;2.58;;;19.50;70.10;;;;;;6308045;22;20339;-76
2023/10/15 01:54:37;;;;;;;5.25;2.00;;;19.50;70.10;;;;;;6307443;22;20095;-76
2023/10/15 01:57:09;;;;;;;6.10;2.53;;;19.50;70.10;;;;;;6280402;22;20503;-76
2023/10/15 01:59:47;;;;;;;5.00;2.22;;;19.50;70.10;;;;;;6280756;22;20016;-76
2023/10/15 02:02:17;;;;;;;6.18;2.58;;;19.50;70.10;;;;;;6279233;22;20053;-76
2023/10/15 02:04:46;;;;;;;4.97;2.10;;;19.50;70.10;;;;;;6280091;22;20061;-76
2023/10/15 02:07:19;;;;;;;4.55;1.80;;;19.50;70.10;;;;;;6279785;22;20019;-76
2023/10/15 02:09:48;;;;;;;5.53;2.13;;;19.40;70.00;;;;;;6279743;22;20098;-76
2023/10/15 02:12:17;;;;;;;6.05;2.33;;;19.40;70.00;;;;;;6280377;22;20015;-77
2023/10/15 02:14:44;;;;;;;4.93;2.40;;;19.40;70.00;;;;;;6280500;22;20019;-77
2023/10/15 02:17:13;;;;;;;6.45;2.28;;;19.40;69.90;;;;;;6279217;22;20344;-76
2023/10/15 02:19:42;;;;;;;4.70;1.90;;;19.40;69.90;;;;;;6279737;22;20029;-76
2023/10/15 02:22:12;;;;;;;5.20;1.90;;;19.40;69.90;;;;;;6307608;22;20015;-76
2023/10/15 02:24:46;;;;;;;4.03;2.00;;;19.40;69.90;;;;;;6279483;22;20304;-76
2023/10/15 02:27:23;;;;;;;5.40;2.05;;;19.40;69.90;;;;;;6307379;22;20016;-76
2023/10/15 02:29:50;;;;;;;4.88;1.83;;;19.40;69.90;;;;;;6279628;22;20826;-75
2023/10/15 02:34:50;;;;;;;4.75;1.92;;;19.40;69.90;;;;;;6307539;22;20098;-76
2023/10/15 02:37:19;;;;;;;5.20;1.60;;;19.40;69.80;;;;;;6279168;22;20019;-76
2023/10/15 02:39:50;;;;;;;6.10;2.05;;;19.40;69.80;;;;;;6279995;22;20098;-76
2023/10/15 02:42:16;;;;;;;4.65;1.85;;;19.40;69.80;;;;;;6307219;22;20023;-76
2023/10/15 02:44:42;;;;;;;5.43;1.80;;;19.40;69.80;;;;;;6278649;22;20018;-76
2023/10/15 02:47:19;;;;;;;3.90;1.60;;;19.40;69.80;;;;;;6280086;22;20023;-76
2023/10/15 02:50:00;;;;;;;5.28;1.80;;;19.40;69.80;;;;;;6280315;22;20064;-76
2023/10/15 02:52:35;;;;;;;5.07;1.70;;;19.40;69.70;;;;;;6278992;22;20110;-76
2023/10/15 02:55:14;;;;;;;5.78;1.92;;;19.40;69.80;;;;;;6280171;22;20026;-75
2023/10/15 02:57:43;;;;;;;4.78;1.70;;;19.40;69.80;;;;;;6279009;22;20089;-76
2023/10/15 03:00:13;;;;;;;4.85;1.60;;;19.40;69.90;;;;;;6279532;22;20015;-76
2023/10/15 03:02:43;;;;;;;4.68;1.52;;;19.40;69.90;;;;;;6280162;22;20103;-76
2023/10/15 03:05:15;;;;;;;4.93;1.45;;;19.40;70.00;;;;;;6278738;22;20014;-76
2023/10/15 03:07:45;;;;;;;4.07;1.60;;;19.40;70.00;;;;;;6280028;22;20026;-76
2023/10/15 03:10:11;;;;;;;4.10;1.63;;;19.40;70.00;;;;;;6279421;22;20022;-75
2023/10/15 03:12:43;;;;;;;4.28;1.42;;;19.40;70.00;;;;;;6279174;22;20019;-75
2023/10/15 03:15:16;;;;;;;4.28;1.63;;;19.40;70.00;;;;;;6279458;22;20022;-75
2023/10/15 03:17:43;;;;;;;3.60;1.50;;;19.40;70.00;;;;;;6307350;22;20086;-76
2023/10/15 03:20:25;;;;;;;4.70;1.50;;;19.50;70.00;;;;;;6278365;22;20015;-76
2023/10/15 03:22:58;;;;;;;4.38;1.58;;;19.40;69.90;;;;;;6307379;22;20069;-75
2023/10/15 03:25:24;;;;;;;3.22;1.30;;;19.50;70.00;;;;;;6306937;22;20086;-74
2023/10/15 03:27:54;;;;;;;3.78;1.17;;;19.50;70.00;;;;;;6278747;22;20474;-75
2023/10/15 03:30:23;;;;;;;3.58;1.50;;;19.50;70.00;;;;;;6306815;22;20055;-75
2023/10/15 03:32:49;;;;;;;3.70;1.30;;;19.50;69.90;;;;;;6278732;22;20011;-75
2023/10/15 03:35:18;;;;;;;3.80;1.30;;;19.50;69.90;;;;;;6279374;22;20015;-75
2023/10/15 03:37:47;;;;;;;2.47;1.10;;;19.50;69.90;;;;;;6279531;22;20329;-75
2023/10/15 03:40:32;;;;;;;3.53;1.17;;;19.60;69.90;;;;;;6305781;22;20011;-75
2023/10/15 03:43:06;;;;;;;3.55;1.10;;;19.60;69.90;;;;;;6279828;22;20019;-75
2023/10/15 03:45:50;;;;;;;4.32;1.35;;;19.60;69.90;;;;;;6306762;22;20026;-75
2023/10/15 03:48:15;;;;;;;2.83;0.98;;;19.60;70.00;;;;;;6278167;22;20043;-75
2023/10/15 03:50:53;;;;;;;4.35;1.33;;;19.60;69.90;;;;;;6279610;22;20015;-75
2023/10/15 03:53:27;;;;;;;3.15;1.23;;;19.70;70.00;;;;;;6278977;22;20455;-75
2023/10/15 03:55:55;;;;;;;3.75;1.25;;;19.70;70.00;;;;;;6279101;22;20022;-75
2023/10/15 03:58:22;;;;;;;4.93;1.20;;;19.70;70.00;;;;;;6279159;22;20030;-75
2023/10/15 04:00:55;;;;;;;3.13;1.23;;;19.70;70.00;;;;;;6279085;22;20340;-75
2023/10/15 04:03:28;;;;;;;4.95;1.30;;;19.70;69.90;;;;;;6305703;22;20104;-75
2023/10/15 04:06:00;;;;;;;2.88;1.13;;;19.70;69.90;;;;;;6306377;22;20018;-75
2023/10/15 04:08:27;;;;;;;2.63;1.10;;;19.80;70.00;;;;;;6305637;22;20035;-75
2023/10/15 04:10:56;;;;;;;3.25;1.00;;;19.80;70.00;;;;;;6278888;22;20012;-75
2023/10/15 04:13:22;;;;;;;3.45;1.13;;;19.80;69.90;;;;;;6278977;22;20042;-75
2023/10/15 04:15:50;;;;;;;2.35;0.90;;;19.80;70.00;;;;;;6305858;22;20019;-76
2023/10/15 04:18:17;;;;;;;3.20;0.88;;;19.80;69.90;;;;;;6279080;22;20019;-76
2023/10/15 04:20:42;;;;;;;2.20;0.82;;;19.80;70.00;;;;;;6306890;22;20022;-76
2023/10/15 04:23:20;;;;;;;3.50;1.13;;;19.80;69.90;;;;;;6278259;22;20015;-76
2023/10/15 04:25:47;;;;;;;3.70;1.30;;;19.80;70.00;;;;;;6279606;22;20019;-75
2023/10/15 04:28:18;;;;;;;2.85;1.10;;;19.90;70.00;;;;;;6279037;22;20058;-75
2023/10/15 04:30:46;;;;;;;2.10;0.88;;;19.90;70.00;;;;;;6305886;22;20020;-75
2023/10/15 04:33:13;;;;;;;2.45;0.73;;;19.90;70.00;;;;;;6279148;22;20458;-75
2023/10/15 04:35:42;;;;;;;3.08;1.08;;;19.90;70.00;;;;;;6279632;22;20039;-75
2023/10/15 04:38:07;;;;;;;3.28;0.93;;;19.90;70.00;;;;;;6305750;22;20094;-75
2023/10/15 04:41:21;;;;;;;3.10;1.10;;;19.90;70.00;;;;;;6279297;22;20046;-75
2023/10/15 04:43:25;;;;;;;3.55;1.00;;;19.90;70.00;;;;;;6262764;22;20478;-75
2023/10/15 04:45:54;;;;;;;2.53;0.98;;;19.90;70.00;;;;;;6281043;22;20015;-75
2023/10/15 04:48:41;;;;;;;2.58;1.08;;;20.00;70.00;;;;;;6280198;22;20019;-75
2023/10/15 04:51:12;;;;;;;2.38;0.82;;;19.90;69.90;;;;;;6279911;22;20056;-76
2023/10/15 04:53:50;;;;;;;2.50;0.95;;;20.00;70.00;;;;;;6308444;22;20030;-75
2023/10/15 04:56:16;;;;;;;2.45;1.00;;;20.00;70.00;;;;;;6308689;22;20007;-75
2023/10/15 04:58:41;;;;;;;3.00;1.08;;;19.90;69.90;;;;;;6279346;22;20461;-75
2023/10/15 05:01:08;;;;;;;2.53;0.85;;;19.90;69.90;;;;;;6308220;22;20015;-75
2023/10/15 05:03:34;;;;;;;4.30;1.27;;;20.00;70.00;;;;;;6281206;22;20099;-75
2023/10/15 05:06:01;;;;;;;3.33;1.23;;;20.00;70.00;;;;;;6307324;22;20061;-75
2023/10/15 05:08:27;;;;;;;3.05;1.20;;;20.00;70.00;;;;;;6280820;22;20057;-75
2023/10/15 05:10:52;;;;;;;2.30;0.90;;;20.00;70.00;;;;;;6308384;22;20012;-75
2023/10/15 05:13:18;;;;;;;2.90;0.90;;;20.00;70.00;;;;;;6307393;22;20023;-75
2023/10/15 05:15:47;;;;;;;3.95;0.93;;;20.00;70.00;;;;;;6280944;22;20011;-75
2023/10/15 05:18:14;;;;;;;2.00;0.90;;;20.00;70.00;;;;;;6280685;22;20019;-75
2023/10/15 05:20:40;;;;;;;2.23;0.97;;;20.00;70.00;;;;;;6280579;22;20011;-75
2023/10/15 05:23:06;;;;;;;3.53;1.17;;;20.00;70.00;;;;;;6280929;22;20015;-76
2023/10/15 05:25:32;;;;;;;3.15;1.30;;;20.00;69.90;;;;;;6279439;22;20343;-77
2023/10/15 05:27:59;;;;;;;3.25;1.20;;;20.00;69.90;;;;;;6280820;22;20027;-74
2023/10/15 05:30:26;;;;;;;3.27;1.13;;;20.00;69.80;;;;;;6280647;22;20016;-75
2023/10/15 05:32:51;;;;;;;3.45;1.05;;;20.00;69.80;;;;;;6307358;22;20098;-76
2023/10/15 05:35:17;;;;;;;4.25;1.20;;;20.00;69.80;;;;;;6279135;22;20120;-76
2023/10/15 05:37:43;;;;;;;2.53;1.10;;;20.10;69.80;;;;;;6280775;22;20015;-75
2023/10/15 05:40:09;;;;;;;3.80;1.40;;;20.10;69.80;;;;;;6279094;22;20039;-75
2023/10/15 05:42:35;;;;;;;2.75;1.20;;;20.10;69.70;;;;;;6308379;22;20015;-75
2023/10/15 05:45:01;;;;;;;3.92;1.40;;;20.10;69.70;;;;;;6307351;22;20500;-73
2023/10/15 05:47:28;;;;;;;3.10;1.33;;;20.10;69.80;;;;;;6279134;22;20336;-73
2023/10/15 05:49:54;;;;;;;3.88;1.67;;;20.10;69.70;;;;;;6279894;22;20106;-73
2023/10/15 05:52:20;;;;;;;3.22;1.00;;;20.10;69.70;;;;;;6279715;22;20023;-73
2023/10/15 05:54:47;;;;;;;3.58;1.30;;;20.10;69.70;;;;;;6279036;22;20019;-73
2023/10/15 05:57:13;;;;;;;2.20;0.90;;;20.20;69.80;;;;;;6279566;22;20022;-74
2023/10/15 05:59:38;;;;;;;4.53;1.05;;;20.10;69.80;;;;;;6307242;22;20068;-73
2023/10/15 06:02:04;;;;;;;5.68;1.25;;;20.10;69.80;;;;;;6278375;22;20046;-73
2023/10/15 06:04:30;;;;;;;2.17;1.00;;;20.20;69.80;;;;;;6280033;22;20329;-73
2023/10/15 06:06:56;;;;;;;6.22;1.35;;;20.20;69.80;;;;;;6279497;22;20023;-75
2023/10/15 06:09:22;;;;;;;3.60;1.15;;;20.20;69.90;;;;;;6306451;22;20015;-72
2023/10/15 06:11:50;;;;;;;3.67;1.20;;;20.20;69.80;;;;;;6279762;22;20090;-72
2023/10/15 06:14:16;;;;;;;3.72;1.00;;;20.20;69.70;;;;;;6279876;22;20518;-72
2023/10/15 06:16:42;;;;;;;3.95;1.02;;;20.20;69.70;;;;;;6279317;22;20320;-78
2023/10/15 06:19:09;;;;;;;3.28;1.20;;;20.20;69.70;;;;;;6280347;22;20370;-69
2023/10/15 06:21:35;;;;;;;3.28;1.17;;;20.20;69.80;;;;;;6307250;22;20030;-69
2023/10/15 06:24:01;;;;;;;3.65;0.98;;;20.20;69.90;;;;;;6280532;22;20019;-67
2023/10/15 06:26:28;;;;;;;7.40;1.30;;;20.20;69.90;;;;;;6279976;22;20082;-66
2023/10/15 06:28:53;;;;;;;6.68;1.33;;;20.20;69.90;;;;;;6279419;22;20383;-69
2023/10/15 06:31:19;;;;;;;4.45;1.52;;;20.20;69.90;;;;;;6279522;22;20072;-71
2023/10/15 06:33:44;;;;;;;3.78;0.98;;;20.20;69.90;;;;;;6278329;22;20432;-69
2023/10/15 06:36:10;;;;;;;3.70;1.00;;;20.20;69.90;;;;;;6278810;22;20039;-71
2023/10/15 06:38:35;;;;;;;4.57;1.35;;;20.30;70.00;;;;;;6280261;22;20011;-71
2023/10/15 06:41:01;;;;;;;6.57;1.20;;;20.30;70.10;;;;;;6280204;22;20060;-70
2023/10/15 06:43:27;;;;;;;4.25;1.05;;;20.30;70.10;;;;;;6278520;22;20570;-69
2023/10/15 06:45:53;;;;;;;4.38;1.20;;;20.30;70.10;;;;;;6279992;22;20124;-71
2023/10/15 06:48:22;;;;;;;5.07;1.17;;;20.30;70.20;;;;;;6279365;22;20050;-77
2023/10/15 06:50:48;;;;;;;4.93;1.40;;;20.30;70.20;;;;;;6306894;22;20047;-72
2023/10/15 06:53:14;;;;;;;4.88;0.88;;;20.30;70.10;;;;;;6279129;22;20026;-72
2023/10/15 06:55:39;;;;;;;4.20;1.23;;;20.30;70.00;;;;;;6279897;22;20034;-71
2023/10/15 06:58:05;;;;;;;5.72;0.80;;;20.30;70.00;;;;;;6278960;22;20016;-74
2023/10/15 07:00:36;;;;;;;4.80;0.88;;;20.30;69.90;;;;;;6279450;22;20435;-71
2023/10/15 07:03:02;;;;;;;7.05;1.23;;;20.30;69.90;;;;;;6280214;22;20023;-74
2023/10/15 07:05:28;;;;;;;7.88;1.73;;;20.30;69.70;;;;;;6278435;22;20021;-68
2023/10/15 07:07:56;;;;;;;7.65;1.70;;;20.40;69.70;;;;;;6279829;22;20015;-77
2023/10/15 07:10:22;;;;;;;10.23;2.25;;;20.40;69.70;;;;;;6277850;22;20015;-73
2023/10/15 07:12:50;;;;;;;13.45;2.20;;;20.40;69.70;;;;;;6276971;22;20030;-75
2023/10/15 07:15:16;;;;;;;12.98;1.80;;;20.40;69.80;;;;;;6278412;22;20019;-73
2023/10/15 07:17:42;;;;;;;12.80;2.15;;;20.40;69.90;;;;;;6305629;22;20053;-73
2023/10/15 07:20:14;;;;;;;9.23;2.35;;;20.40;70.00;;;;;;6305435;22;20011;-73
2023/10/15 07:22:41;;;;;;;12.38;2.38;;;20.40;70.00;;;;;;6278943;22;20019;-75
2023/10/15 07:25:08;;;;;;;5.43;1.95;;;20.40;70.20;;;;;;6305931;22;20026;-76
2023/10/15 07:27:35;;;;;;;12.68;2.63;;;20.40;70.20;;;;;;6278762;22;20065;-72
2023/10/15 07:30:01;;;;;;;9.05;1.85;;;20.40;70.20;;;;;;6279354;22;20090;-76
2023/10/15 07:32:27;;;;;;;10.35;2.40;;;20.40;70.30;;;;;;6278070;22;20019;-75
2023/10/15 07:34:53;;;;;;;9.35;2.30;;;20.40;70.30;;;;;;6277673;22;20043;-76
2023/10/15 07:37:19;;;;;;;10.73;2.22;;;20.40;70.30;;;;;;6280115;22;20019;-76
2023/10/15 07:39:45;;;;;;;10.38;2.20;;;20.40;70.30;;;;;;6279499;22;20022;-77
2023/10/15 07:42:11;;;;;;;9.60;2.17;;;20.40;70.30;;;;;;6278265;22;20023;-78
2023/10/15 07:44:36;;;;;;;8.57;2.10;;;20.40;70.30;;;;;;6278346;22;20015;-78
2023/10/15 07:47:04;;;;;;;11.25;2.22;;;20.40;70.30;;;;;;6277747;22;20398;-78
2023/10/15 07:49:31;;;;;;;9.60;1.97;;;20.40;70.40;;;;;;6279760;22;20018;-78
2023/10/15 07:51:57;;;;;;;6.97;2.43;;;20.40;70.40;;;;;;6279177;22;20273;-76
2023/10/15 07:54:22;;;;;;;9.18;1.85;;;20.40;70.30;;;;;;6278237;22;20014;-77
2023/10/15 07:56:48;;;;;;;11.05;2.58;;;20.40;70.30;;;;;;6279783;22;20015;-78
2023/10/15 07:59:14;;;;;;;14.00;2.35;;;20.40;70.30;;;;;;6278395;22;20031;-80
2023/10/15 08:01:40;;;;;;;6.03;1.65;;;20.40;70.30;;;;;;6304002;22;20324;-80
2023/10/15 08:04:06;;;;;;;9.57;2.35;;;20.40;70.40;;;;;;6278326;22;20015;-80
2023/10/15 08:06:33;;;;;;;7.88;1.73;;;20.40;70.40;;;;;;6277086;22;20022;-80
2023/10/15 08:08:58;;;;;;;7.85;1.80;;;20.40;70.40;;;;;;6277122;22;20069;-80
2023/10/15 08:11:24;;;;;;;6.65;1.88;;;20.40;70.30;;;;;;6304565;22;20019;-77
2023/10/15 08:13:50;;;;;;;7.63;1.90;;;20.40;70.20;;;;;;6277372;22;20015;-78
2023/10/15 08:16:18;;;;;;;9.90;2.17;;;20.40;70.10;;;;;;6276833;22;20023;-80
2023/10/15 08:18:44;;;;;;;9.00;1.70;;;20.40;70.10;;;;;;6279791;22;20015;-78
2023/10/15 08:21:11;;;;;;;7.05;1.50;;;20.40;70.10;;;;;;6279286;22;20484;-79
2023/10/15 08:23:38;;;;;;;5.57;1.40;;;20.40;70.10;;;;;;6280153;22;20077;-80
2023/10/15 08:26:05;;;;;;;7.78;1.73;;;20.40;70.20;;;;;;6279517;22;20015;-80
2023/10/15 08:28:31;;;;;;;8.38;2.38;;;20.40;70.20;;;;;;6278384;22;20020;-73
2023/10/15 08:30:57;;;;;;;6.70;1.45;;;20.40;70.20;;;;;;6279904;22;20038;-72
2023/10/15 08:33:23;;;;;;;4.65;1.42;;;20.40;70.30;;;;;;6279088;22;20428;-76
2023/10/15 08:35:49;;;;;;;9.75;2.17;;;20.40;70.30;;;;;;6278156;22;20305;-76
2023/10/15 08:38:15;;;;;;;8.77;1.48;;;20.40;70.20;;;;;;6278961;22;20015;-76
2023/10/15 08:40:41;;;;;;;7.22;1.40;;;20.40;70.10;;;;;;6279867;22;20015;-75
2023/10/15 08:43:21;;;;;;;5.05;1.23;;;20.40;70.10;;;;;;6279040;22;20073;-74
2023/10/15 08:45:47;;;;;;;8.13;1.52;;;20.40;70.10;;;;;;6280233;22;20447;-74
2023/10/15 08:48:14;;;;;;;8.05;1.92;;;20.40;70.10;;;;;;6228323;22;20023;-74
2023/10/15 08:50:40;;;;;;;4.90;1.58;;;20.40;70.00;;;;;;6278750;22;20343;-71
2023/10/15 08:53:07;;;;;;;7.13;1.52;;;20.40;70.00;;;;;;6280137;22;20427;-76
2023/10/15 08:55:33;;;;;;;5.85;1.50;;;20.40;70.00;;;;;;6279236;22;20129;-76
2023/10/15 08:57:58;;;;;;;5.38;1.45;;;20.50;70.00;;;;;;6278977;22;20015;-74
2023/10/15 09:00:28;;;;;;;6.47;1.45;;;20.50;70.10;;;;;;6252707;22;20007;-74
2023/10/15 09:02:57;;;;;;;7.50;1.40;;;20.50;70.10;;;;;;6279550;22;20023;-73
2023/10/15 09:05:23;;;;;;;5.13;1.00;;;20.50;70.10;;;;;;6277580;22;20076;-76
2023/10/15 09:07:54;;;;;;;5.93;1.35;;;20.50;70.10;;;;;;6279006;22;20461;-75
2023/10/15 09:10:20;;;;;;;5.15;1.40;;;20.50;70.00;;;;;;6254663;22;20011;-75
2023/10/15 09:12:47;;;;;;;6.10;1.48;;;20.60;70.10;;;;;;6280941;22;20040;-70
2023/10/15 09:15:16;;;;;;;9.90;1.50;;;20.60;70.00;;;;;;6280425;22;20015;-68
2023/10/15 09:17:58;;;;;;;7.63;1.05;;;20.60;70.00;;;;;;6306183;22;20023;-75
2023/10/15 09:20:27;;;;;;;5.03;1.05;;;20.70;70.00;;;;;;6278764;22;20439;-76
2023/10/15 09:22:57;;;;;;;4.72;1.30;;;20.60;70.10;;;;;;6278505;22;20027;-75
2023/10/15 09:25:26;;;;;;;8.68;1.52;;;20.70;70.10;;;;;;6277755;22;20518;-74
2023/10/15 09:27:58;;;;;;;6.32;1.02;;;20.70;70.10;;;;;;6254458;22;20068;-73
2023/10/15 09:30:24;;;;;;;8.98;1.60;;;20.70;70.00;;;;;;6306186;22;20019;-73
2023/10/15 09:32:50;;;;;;;8.70;1.38;;;20.70;69.90;;;;;;6277544;22;20023;-75
2023/10/15 09:35:16;;;;;;;6.32;1.23;;;20.70;69.90;;;;;;6306709;22;20020;-77
2023/10/15 09:37:41;;;;;;;6.07;1.40;;;20.70;69.90;;;;;;6276877;22;20011;-77
2023/10/15 09:40:18;;;;;;;9.10;1.50;;;20.70;69.80;;;;;;6278688;22;20058;-77
2023/10/15 09:42:49;;;;;;;5.97;2.03;;;20.70;69.70;;;;;;6279101;22;20459;-76
2023/10/15 09:45:23;;;;;;;5.82;1.75;;;20.70;69.70;;;;;;6278778;22;20030;-75
2023/10/15 09:47:54;;;;;;;5.40;1.45;;;20.70;69.70;;;;;;6277999;22;20023;-78
2023/10/15 09:50:24;;;;;;;9.07;2.03;;;20.70;69.70;;;;;;6279237;22;20080;-76
2023/10/15 09:52:56;;;;;;;5.55;1.80;;;20.60;69.60;;;;;;6278548;22;20026;-75
2023/10/15 09:55:28;;;;;;;5.90;1.88;;;20.60;69.60;;;;;;6254768;22;20019;-75
2023/10/15 09:57:55;;;;;;;4.65;1.77;;;20.60;69.60;;;;;;6278287;22;20053;-78
2023/10/15 10:03:48;;;;;;;6.65;1.80;;;20.60;69.60;;;;;;6278054;22;20027;-78
2023/10/15 10:06:30;;;;;;;7.28;1.67;;;20.60;69.60;;;;;;6278267;22;20382;-77
2023/10/15 10:09:25;;;;;;;6.25;1.70;;;20.60;69.60;;;;;;6280742;22;20019;-78
2023/10/15 10:11:59;;;;;;;8.70;1.98;;;20.60;69.60;;;;;;6255431;22;20027;-79
2023/10/15 10:14:44;;;;;;;7.75;1.88;;;20.60;69.60;;;;;;6277416;22;20039;-79
2023/10/15 10:17:11;;;;;;;7.22;2.28;;;20.60;69.60;;;;;;6278467;22;20470;-76
2023/10/15 10:19:39;;;;;;;5.28;1.58;;;20.60;69.60;;;;;;6253902;22;20019;-74
2023/10/15 10:22:15;;;;;;;4.18;1.85;;;20.60;69.60;;;;;;6305229;22;20026;-76
2023/10/15 10:24:42;;;;;;;5.50;2.10;;;20.60;69.60;;;;;;6229298;22;20051;-76
2023/10/15 10:27:13;;;;;;;7.45;2.40;;;20.60;69.50;;;;;;6277939;22;20475;-74
2023/10/15 10:29:40;;;;;;;6.57;1.85;;;20.60;69.50;;;;;;6252869;22;20037;-74
2023/10/15 10:32:05;;;;;;;5.30;2.30;;;20.60;69.50;;;;;;6253289;22;20019;-75
2023/10/15 10:34:31;;;;;;;6.07;1.70;;;20.60;69.50;;;;;;6228115;22;20102;-71
2023/10/15 10:36:56;;;;;;;3.83;1.70;;;20.60;69.40;;;;;;6278220;22;20015;-74
2023/10/15 10:39:22;;;;;;;5.70;1.95;;;20.60;69.40;;;;;;6306803;22;20440;-73
2023/10/15 10:41:54;;;;;;;4.25;1.70;;;20.60;69.40;;;;;;6279230;22;20396;-73
2023/10/15 10:44:22;;;;;;;4.30;1.90;;;20.60;69.30;;;;;;6280004;22;20019;-73
2023/10/15 10:46:48;;;;;;;5.65;1.90;;;20.60;69.30;;;;;;6280209;22;20050;-73
2023/10/15 10:49:14;;;;;;;5.68;2.10;;;20.60;69.30;;;;;;6278847;22;20030;-73
2023/10/15 10:51:43;;;;;;;4.45;1.90;;;20.50;69.20;;;;;;6280216;22;20019;-73
2023/10/15 10:54:09;;;;;;;8.85;2.50;;;20.50;69.70;;;;;;6279879;22;20016;-73
2023/10/15 10:56:40;;;;;;;5.75;2.00;;;20.50;69.20;;;;;;6279281;22;20019;-74
2023/10/15 10:59:10;;;;;;;6.50;2.15;;;20.50;69.10;;;;;;6279836;22;20095;-74
2023/10/15 11:01:42;;;;;;;9.27;2.00;;;20.50;69.10;;;;;;6279764;22;20026;-69
2023/10/15 11:04:11;;;;;;;6.18;2.13;;;20.50;69.10;;;;;;6278328;22;20059;-76
2023/10/15 11:06:38;;;;;;;6.38;2.40;;;20.40;69.00;;;;;;6277670;22;20355;-76
2023/10/15 11:09:16;;;;;;;6.90;2.85;;;20.40;69.00;;;;;;6278327;22;20059;-75
2023/10/15 11:11:57;;;;;;;7.03;2.80;;;20.40;68.90;;;;;;6277831;22;20011;-75
2023/10/15 11:14:25;;;;;;;5.63;2.47;;;20.30;68.80;;;;;;6277864;22;20439;-74
2023/10/15 11:16:51;;;;;;;9.90;2.45;;;20.30;68.80;;;;;;6277762;22;20019;-78
2023/10/15 11:19:18;;;;;;;6.80;2.85;;;20.30;68.90;;;;;;6304106;22;20015;-75
2023/10/15 11:21:46;;;;;;;7.03;2.25;;;20.30;69.00;;;;;;6278480;22;20047;-79
2023/10/15 11:24:12;;;;;;;8.93;2.58;;;20.30;69.10;;;;;;6277180;22;20407;-79
2023/10/15 11:26:41;;;;;;;7.00;2.25;;;20.30;69.20;;;;;;6278102;22;20321;-78
2023/10/15 11:29:08;;;;;;;4.63;1.90;;;20.30;69.30;;;;;;6278435;22;20019;-77
2023/10/15 11:31:34;;;;;;;6.30;2.63;;;20.30;69.30;;;;;;6251692;22;20436;-78
2023/10/15 11:34:00;;;;;;;8.23;2.20;;;20.30;69.40;;;;;;6278311;22;20019;-77
2023/10/15 11:36:27;;;;;;;6.47;2.50;;;20.30;69.40;;;;;;6277591;22;20015;-78
2023/10/15 11:38:53;;;;;;;7.28;2.45;;;20.30;69.50;;;;;;6252075;22;20020;-78
2023/10/15 11:41:19;;;;;;;8.25;2.63;;;20.30;69.50;;;;;;6277602;22;20047;-78
2023/10/15 11:43:45;;;;;;;7.65;2.25;;;20.30;69.60;;;;;;6278286;22;20031;-78
2023/10/15 11:46:11;;;;;;;8.88;2.53;;;20.30;69.60;;;;;;6276759;22;20011;-78
2023/10/15 11:48:37;;;;;;;6.20;2.10;;;20.30;69.70;;;;;;6252372;22;20029;-79
2023/10/15 11:51:08;;;;;;;6.43;2.20;;;20.30;69.70;;;;;;6278184;22;20068;-78
2023/10/15 11:53:33;;;;;;;8.23;2.38;;;20.30;69.70;;;;;;6305229;22;20073;-77
2023/10/15 11:56:02;;;;;;;6.45;2.40;;;20.30;69.80;;;;;;6277672;22;20787;-78
2023/10/15 11:58:31;;;;;;;5.15;1.90;;;20.30;69.80;;;;;;6252662;22;20348;-78
2023/10/15 12:00:58;;;;;;;7.45;2.17;;;20.30;69.80;;;;;;6304102;22;20518;-77
2023/10/15 12:03:24;;;;;;;4.30;1.90;;;20.30;69.90;;;;;;6249918;22;20062;-79
2023/10/15 12:05:51;;;;;;;5.50;1.75;;;20.30;69.90;;;;;;6251791;22;20011;-78
2023/10/15 12:08:21;;;;;;;6.18;2.00;;;20.30;70.00;;;;;;6276829;22;20015;-78
2023/10/15 12:10:47;;;;;;;5.05;2.10;;;20.30;70.00;;;;;;6277203;22;20098;-78
2023/10/15 12:13:14;;;;;;;6.10;1.90;;;20.30;69.90;;;;;;6252263;22;20015;-78
2023/10/15 12:15:40;;;;;;;5.00;2.00;;;20.30;69.90;;;;;;6277227;22;20489;-79
2023/10/15 12:18:06;;;;;;;6.05;2.05;;;20.30;69.90;;;;;;6277714;22;20400;-79
2023/10/15 12:20:32;;;;;;;4.93;1.73;;;20.30;69.90;;;;;;6303831;22;20440;-79
2023/10/15 12:22:58;;;;;;;6.93;1.75;;;20.30;69.90;;;;;;6252262;22;20030;-78
2023/10/15 12:25:23;;;;;;;5.70;1.90;;;20.30;69.90;;;;;;6276848;22;20347;-78
2023/10/15 12:27:49;;;;;;;7.32;2.08;;;20.30;69.90;;;;;;6276930;22;20022;-76
2023/10/15 12:30:24;;;;;;;5.35;1.92;;;20.30;69.90;;;;;;6277293;22;20015;-78
2023/10/15 12:32:58;;;;;;;4.75;1.88;;;20.30;69.90;;;;;;6304674;22;20094;-77
2023/10/15 12:35:23;;;;;;;5.85;1.60;;;20.30;69.90;;;;;;6276025;22;20024;-76
2023/10/15 12:38:01;;;;;;;3.15;1.45;;;20.30;69.90;;;;;;6277481;22;20015;-76
2023/10/15 12:40:31;;;;;;;4.95;1.85;;;20.30;69.80;;;;;;6304698;22;20043;-78
2023/10/15 12:43:00;;;;;;;5.90;2.17;;;20.30;69.80;;;;;;6276825;22;20084;-77
2023/10/15 12:45:27;;;;;;;4.72;1.55;;;20.30;69.80;;;;;;6276545;22;20427;-76
2023/10/15 12:47:53;;;;;;;4.05;1.50;;;20.40;69.70;;;;;;6277313;22;20023;-76
2023/10/15 12:50:19;;;;;;;5.32;1.70;;;20.40;69.70;;;;;;6276138;22;20057;-75
2023/10/15 12:52:45;;;;;;;6.00;1.55;;;20.40;69.60;;;;;;6277672;22;20054;-79
2023/10/15 12:55:11;;;;;;;6.60;2.38;;;20.40;69.60;;;;;;6276687;22;20015;-75
2023/10/15 12:57:37;;;;;;;5.63;1.95;;;20.40;69.50;;;;;;6276728;22;20015;-79
2023/10/15 13:00:11;;;;;;;4.60;1.77;;;20.40;69.40;;;;;;6277507;22;20047;-76
2023/10/15 13:02:38;;;;;;;6.28;1.80;;;20.40;69.20;;;;;;6276198;22;20027;-77
2023/10/15 13:05:04;;;;;;;7.10;1.73;;;20.50;69.10;;;;;;6278332;22;20443;-78
2023/10/15 13:07:30;;;;;;;5.20;1.58;;;20.40;69.00;;;;;;6279230;22;20019;-78
2023/10/15 13:09:57;;;;;;;5.25;1.80;;;20.50;69.00;;;;;;6278739;22;20026;-77